sensor_id;sensor_type;location;lat;lon;timestamp;temperature;humidity
16728;DHT22;8482;54.396;18.590;2024-02-14T16:48:11;9.30;99.90
16728;DHT22;8482;54.396;18.590;2024-02-14T16:50:37;9.20;99.90
16728;DHT22;8482;54.396;18.590;2024-02-14T16:53:04;9.20;99.90
16728;DHT22;8482;54.396;18.590;2024-02-14T16:55:30;9.20;99.90
16728;DHT22;8482;54.396;18.590;2024-02-14T16:57:55;9.20;99.90
16728;DHT22;8482;54.396;18.590;2024-02-14T17:00:22;9.20;99.90
16728;DHT22;8482;54.396;18.590;2024-02-14T17:02:48;9.10;99.90
16728;DHT22;8482;54.396;18.590;2024-02-14T17:05:14;9.10;99.90
16728;DHT22;8482;54.396;18.590;2024-02-14T17:07:40;9.10;99.90
16728;DHT22;8482;54.396;18.590;2024-02-14T17:10:06;9.10;99.90
16728;DHT22;8482;54.396;18.590;2024-02-14T17:12:34;9.10;99.90
16728;DHT22;8482;54.396;18.590;2024-02-14T17:15:00;9.10;99.90
16728;DHT22;8482;54.396;18.590;2024-02-14T17:17:26;9.10;99.90
16728;DHT22;8482;54.396;18.590;2024-02-14T17:19:52;9.10;99.90
16728;DHT22;8482;54.396;18.590;2024-02-14T17:22:17;9.00;99.90
16728;DHT22;8482;54.396;18.590;2024-02-14T17:24:43;9.00;99.90
16728;DHT22;8482;54.396;18.590;2024-02-14T17:27:10;9.00;99.90
16728;DHT22;8482;54.396;18.590;2024-02-14T17:29:36;9.00;99.90
16728;DHT22;8482;54.396;18.590;2024-02-14T17:32:02;9.00;99.90
16728;DHT22;8482;54.396;18.590;2024-02-14T17:34:28;8.90;99.90
16728;DHT22;8482;54.396;18.590;2024-02-14T17:36:59;8.90;99.90
16728;DHT22;8482;54.396;18.590;2024-02-14T17:39:26;8.90;99.90
16728;DHT22;8482;54.396;18.590;2024-02-14T17:41:52;8.90;99.90
16728;DHT22;8482;54.396;18.590;2024-02-14T17:44:17;8.90;99.90
16728;DHT22;8482;54.396;18.590;2024-02-14T17:46:43;8.90;99.90
16728;DHT22;8482;54.396;18.590;2024-02-14T17:49:09;8.90;99.90
16728;DHT22;8482;54.396;18.590;2024-02-14T17:51:39;8.80;99.90
16728;DHT22;8482;54.396;18.590;2024-02-14T17:54:08;8.80;99.90
16728;DHT22;8482;54.396;18.590;2024-02-14T17:56:34;8.80;99.90
16728;DHT22;8482;54.396;18.590;2024-02-14T17:58:59;8.80;99.90
16728;DHT22;8482;54.396;18.590;2024-02-14T18:01:27;8.80;99.90
16728;DHT22;8482;54.396;18.590;2024-02-14T18:03:52;8.70;99.90
16728;DHT22;8482;54.396;18.590;2024-02-14T18:06:19;8.70;99.90
16728;DHT22;8482;54.396;18.590;2024-02-14T18:08:45;8.70;99.90
16728;DHT22;8482;54.396;18.590;2024-02-14T18:11:11;8.70;99.90
16728;DHT22;8482;54.396;18.590;2024-02-14T18:13:38;8.70;99.90
16728;DHT22;8482;54.396;18.590;2024-02-14T18:16:04;8.70;99.90
16728;DHT22;8482;54.396;18.590;2024-02-14T18:18:30;8.70;99.90
16728;DHT22;8482;54.396;18.590;2024-02-14T18:20:56;8.70;99.90
16728;DHT22;8482;54.396;18.590;2024-02-14T18:23:22;8.70;99.90
16728;DHT22;8482;54.396;18.590;2024-02-14T18:25:48;8.70;99.90
16728;DHT22;8482;54.396;18.590;2024-02-14T18:28:15;8.70;99.90
16728;DHT22;8482;54.396;18.590;2024-02-14T18:30:40;8.70;99.90
16728;DHT22;8482;54.396;18.590;2024-02-14T18:33:06;8.70;99.90
16728;DHT22;8482;54.396;18.590;2024-02-14T18:35:39;8.70;99.90
16728;DHT22;8482;54.396;18.590;2024-02-14T18:38:05;8.70;99.90
16728;DHT22;8482;54.396;18.590;2024-02-14T18:40:35;8.70;99.90
16728;DHT22;8482;54.396;18.590;2024-02-14T18:43:02;8.70;99.90
16728;DHT22;8482;54.396;18.590;2024-02-14T18:45:28;8.60;99.90
16728;DHT22;8482;54.396;18.590;2024-02-14T18:47:54;8.60;99.90
16728;DHT22;8482;54.396;18.590;2024-02-14T18:50:21;8.60;99.90
16728;DHT22;8482;54.396;18.590;2024-02-14T18:52:47;8.60;99.90
16728;DHT22;8482;54.396;18.590;2024-02-14T18:55:16;8.60;99.90
16728;DHT22;8482;54.396;18.590;2024-02-14T18:57:46;8.60;99.90
16728;DHT22;8482;54.396;18.590;2024-02-14T19:00:12;8.60;99.90
16728;DHT22;8482;54.396;18.590;2024-02-14T19:02:38;8.60;99.90
16728;DHT22;8482;54.396;18.590;2024-02-14T19:05:08;8.70;99.90
16728;DHT22;8482;54.396;18.590;2024-02-14T19:07:37;8.60;99.90
16728;DHT22;8482;54.396;18.590;2024-02-14T19:10:05;8.60;99.90
16728;DHT22;8482;54.396;18.590;2024-02-14T19:12:31;8.60;99.90
16728;DHT22;8482;54.396;18.590;2024-02-14T19:14:59;8.60;99.90
16728;DHT22;8482;54.396;18.590;2024-02-14T19:17:29;8.60;99.90
16728;DHT22;8482;54.396;18.590;2024-02-14T19:19:56;8.60;99.90
16728;DHT22;8482;54.396;18.590;2024-02-14T19:22:22;8.60;99.90
16728;DHT22;8482;54.396;18.590;2024-02-14T19:24:48;8.60;99.90
16728;DHT22;8482;54.396;18.590;2024-02-14T19:27:14;8.60;99.90
16728;DHT22;8482;54.396;18.590;2024-02-14T19:29:40;8.60;99.90
16728;DHT22;8482;54.396;18.590;2024-02-14T19:32:06;8.60;99.90
16728;DHT22;8482;54.396;18.590;2024-02-14T19:34:32;8.50;99.90
16728;DHT22;8482;54.396;18.590;2024-02-14T19:36:58;8.50;99.90
16728;DHT22;8482;54.396;18.590;2024-02-14T19:39:24;8.50;99.90
16728;DHT22;8482;54.396;18.590;2024-02-14T19:41:50;8.50;99.90
16728;DHT22;8482;54.396;18.590;2024-02-14T19:44:16;8.50;99.90
16728;DHT22;8482;54.396;18.590;2024-02-14T19:46:42;8.50;99.90
16728;DHT22;8482;54.396;18.590;2024-02-14T19:49:09;8.50;99.90
16728;DHT22;8482;54.396;18.590;2024-02-14T19:51:36;8.50;99.90
16728;DHT22;8482;54.396;18.590;2024-02-14T19:54:02;8.50;99.90
16728;DHT22;8482;54.396;18.590;2024-02-14T19:56:28;8.50;99.90
16728;DHT22;8482;54.396;18.590;2024-02-14T19:58:55;8.50;99.90
16728;DHT22;8482;54.396;18.590;2024-02-14T20:01:21;8.40;99.90
16728;DHT22;8482;54.396;18.590;2024-02-14T20:03:46;8.40;99.90
16728;DHT22;8482;54.396;18.590;2024-02-14T20:06:13;8.40;99.90
16728;DHT22;8482;54.396;18.590;2024-02-14T20:08:38;8.40;99.90
16728;DHT22;8482;54.396;18.590;2024-02-14T20:11:07;8.40;99.90
16728;DHT22;8482;54.396;18.590;2024-02-14T20:13:34;8.40;99.90
16728;DHT22;8482;54.396;18.590;2024-02-14T20:16:03;8.30;99.90
16728;DHT22;8482;54.396;18.590;2024-02-14T20:18:29;8.30;99.90
16728;DHT22;8482;54.396;18.590;2024-02-14T20:20:56;8.30;99.90
16728;DHT22;8482;54.396;18.590;2024-02-14T20:23:22;8.30;99.90
16728;DHT22;8482;54.396;18.590;2024-02-14T20:25:48;8.30;99.90
16728;DHT22;8482;54.396;18.590;2024-02-14T20:28:15;8.30;99.90
16728;DHT22;8482;54.396;18.590;2024-02-14T20:30:41;8.30;99.90
16728;DHT22;8482;54.396;18.590;2024-02-14T20:33:08;8.30;99.90
16728;DHT22;8482;54.396;18.590;2024-02-14T20:35:33;8.20;99.90
16728;DHT22;8482;54.396;18.590;2024-02-14T20:38:01;8.30;99.90
16728;DHT22;8482;54.396;18.590;2024-02-14T20:40:28;8.20;99.90
16728;DHT22;8482;54.396;18.590;2024-02-14T20:42:58;8.30;99.90
16728;DHT22;8482;54.396;18.590;2024-02-14T20:45:24;8.20;99.90
16728;DHT22;8482;54.396;18.590;2024-02-14T20:47:50;8.20;99.90
16728;DHT22;8482;54.396;18.590;2024-02-14T20:50:16;8.20;99.90
16728;DHT22;8482;54.396;18.590;2024-02-14T20:52:42;8.20;99.90
16728;DHT22;8482;54.396;18.590;2024-02-14T20:55:09;8.20;99.90
16728;DHT22;8482;54.396;18.590;2024-02-14T20:57:35;8.20;99.90
16728;DHT22;8482;54.396;18.590;2024-02-14T21:00:01;8.20;99.90
16728;DHT22;8482;54.396;18.590;2024-02-14T21:02:27;8.20;99.90
16728;DHT22;8482;54.396;18.590;2024-02-14T21:04:53;8.20;99.90
16728;DHT22;8482;54.396;18.590;2024-02-14T21:07:19;8.20;99.90
16728;DHT22;8482;54.396;18.590;2024-02-14T21:09:44;8.20;99.90
16728;DHT22;8482;54.396;18.590;2024-02-14T21:12:11;8.10;99.90
16728;DHT22;8482;54.396;18.590;2024-02-14T21:14:37;8.10;99.90
16728;DHT22;8482;54.396;18.590;2024-02-14T21:17:03;8.20;99.90
16728;DHT22;8482;54.396;18.590;2024-02-14T21:19:29;8.10;99.90
16728;DHT22;8482;54.396;18.590;2024-02-14T21:21:56;8.20;99.90
16728;DHT22;8482;54.396;18.590;2024-02-14T21:24:21;8.20;99.90
16728;DHT22;8482;54.396;18.590;2024-02-14T21:26:48;8.20;99.90
16728;DHT22;8482;54.396;18.590;2024-02-14T21:29:15;8.20;99.90
16728;DHT22;8482;54.396;18.590;2024-02-14T21:31:41;8.10;99.90
16728;DHT22;8482;54.396;18.590;2024-02-14T21:34:08;8.10;99.90
16728;DHT22;8482;54.396;18.590;2024-02-14T21:36:34;8.20;99.90
16728;DHT22;8482;54.396;18.590;2024-02-14T21:39:04;8.20;99.90
16728;DHT22;8482;54.396;18.590;2024-02-14T21:41:32;8.20;99.90
16728;DHT22;8482;54.396;18.590;2024-02-14T21:44:01;8.20;99.90
16728;DHT22;8482;54.396;18.590;2024-02-14T21:46:27;8.20;99.90
16728;DHT22;8482;54.396;18.590;2024-02-14T21:48:56;8.20;99.90
16728;DHT22;8482;54.396;18.590;2024-02-14T21:51:23;8.20;99.90
16728;DHT22;8482;54.396;18.590;2024-02-14T21:53:51;8.20;99.90
16728;DHT22;8482;54.396;18.590;2024-02-14T21:56:18;8.20;99.90
16728;DHT22;8482;54.396;18.590;2024-02-14T21:58:44;8.20;99.90
16728;DHT22;8482;54.396;18.590;2024-02-14T22:01:11;8.20;99.90
16728;DHT22;8482;54.396;18.590;2024-02-14T22:03:37;8.20;99.90
16728;DHT22;8482;54.396;18.590;2024-02-14T22:06:03;8.20;99.90
16728;DHT22;8482;54.396;18.590;2024-02-14T22:08:29;8.20;99.90
16728;DHT22;8482;54.396;18.590;2024-02-14T22:10:55;8.20;99.90
16728;DHT22;8482;54.396;18.590;2024-02-14T22:13:21;8.20;99.90
16728;DHT22;8482;54.396;18.590;2024-02-14T22:15:47;8.20;99.90
16728;DHT22;8482;54.396;18.590;2024-02-14T22:18:15;8.20;99.90
16728;DHT22;8482;54.396;18.590;2024-02-14T22:20:45;8.20;99.90
16728;DHT22;8482;54.396;18.590;2024-02-14T22:23:11;8.20;99.90
16728;DHT22;8482;54.396;18.590;2024-02-14T22:25:38;8.20;99.90
16728;DHT22;8482;54.396;18.590;2024-02-14T22:28:05;8.20;99.90
16728;DHT22;8482;54.396;18.590;2024-02-14T22:30:32;8.20;99.90
16728;DHT22;8482;54.396;18.590;2024-02-14T22:32:58;8.20;99.90
16728;DHT22;8482;54.396;18.590;2024-02-14T22:35:24;8.20;99.90
16728;DHT22;8482;54.396;18.590;2024-02-14T22:37:51;8.20;99.90
16728;DHT22;8482;54.396;18.590;2024-02-14T22:40:17;8.20;99.90
16728;DHT22;8482;54.396;18.590;2024-02-14T22:42:44;8.20;99.90
16728;DHT22;8482;54.396;18.590;2024-02-14T22:45:13;8.20;99.90
16728;DHT22;8482;54.396;18.590;2024-02-14T22:47:40;8.20;99.90
16728;DHT22;8482;54.396;18.590;2024-02-14T22:50:08;8.20;99.90
16728;DHT22;8482;54.396;18.590;2024-02-14T22:52:35;8.20;99.90
16728;DHT22;8482;54.396;18.590;2024-02-14T22:55:01;8.20;99.90
16728;DHT22;8482;54.396;18.590;2024-02-14T22:57:27;8.20;99.90
16728;DHT22;8482;54.396;18.590;2024-02-14T22:59:53;8.20;99.90
16728;DHT22;8482;54.396;18.590;2024-02-14T23:02:20;8.20;99.90
16728;DHT22;8482;54.396;18.590;2024-02-14T23:04:45;8.20;99.90
16728;DHT22;8482;54.396;18.590;2024-02-14T23:07:12;8.20;99.90
16728;DHT22;8482;54.396;18.590;2024-02-14T23:09:38;8.20;99.90
16728;DHT22;8482;54.396;18.590;2024-02-14T23:12:04;8.20;99.90
16728;DHT22;8482;54.396;18.590;2024-02-14T23:14:31;8.20;99.90
